Friday, November 24, 2017, 8:11 AM EST
Back to Local

KSWF, Newburgh / Stewart

Location: New Windsor, NY, United States Lat: 41.5
Local Time: 8:11 AM EST (13:11 GMT) Lon: -74.1
Time Zone: US/Eastern Elev: 492 ft

Show me the last for .
Show Decoded

2017-11-24 07:45 METAR KSWF 241245Z 26006KT 15SM SKC M01/M05 A3004 =
2017-11-24 06:45 METAR KSWF 241145Z 26006KT 15SM FEW060 M03/M05 A3004 =
2017-11-24 05:45 METAR KSWF 241045Z 26007KT 10SM SKC M02/M05 A3001 =
2017-11-24 04:45 METAR KSWF 240945Z 26007KT 10SM SKC M02/M05 A3001 =
2017-11-24 03:45 METAR KSWF 240845Z 26007KT 10SM SKC M02/M05 A3002 =
2017-11-24 02:45 METAR KSWF 240745Z 26007KT 10SM SKC M02/M05 A3002 =
2017-11-24 01:45 METAR KSWF 240645Z 26007KT 10SM SKC M02/M05 A3002 =
2017-11-24 00:45 METAR KSWF 240545Z 00000KT 10SM SKC M01/M05 A3001 =
2017-11-23 23:45 METAR KSWF 240445Z 00000KT 10SM BKN100 00/M05 A3002 =
2017-11-23 22:45 METAR KSWF 240345Z 00000KT 10SM BKN100 00/M05 A3002 =
2017-11-23 21:45 METAR KSWF 240245Z 27006KT 10SM OVC090 - 01/M05 A3002 =
2017-11-23 20:45 METAR KSWF 240145Z 27006KT 10SM SKC 00/M04 A3002 =
2017-11-23 19:45 METAR KSWF 240045Z 27006KTKT 10SM SKC 00/M05 A3002 =
2017-11-23 18:45 METAR KSWF 232345Z 25007KT 10SM SKC 00/M05 A3000 =
2017-11-23 17:45 METAR KSWF 232245Z 28005KT 10SM SKC 01/M06 A3000 =
2017-11-23 16:45 METAR KSWF 232145Z 28005KT 10SM SCT100 04/M07 A3000 =
2017-11-23 15:45 METAR KSWF 232045Z 28005KT 20SM SCT100 05/M06 A2999 =
2017-11-23 14:45 METAR KSWF 231945Z 28005KT 20SM SKC 05/M06 A3000 =
2017-11-23 13:45 METAR KSWF 231845Z 29005KT 20SM SKC 05/M07 A3002 =
2017-11-23 12:45 METAR KSWF 231745Z 24007KT 20SM SKC 04/M06 A3004 =
2017-11-23 11:45 METAR KSWF 231645Z 30007KT 20SM SKC 03/M07 A3006 =
2017-11-23 10:45 METAR KSWF 231545Z 00000KT 20SM SKC 00/M06 A3009 =
2017-11-23 09:45 METAR KSWF 231445Z 00000KT 20SM SKC 00/M06 A3010 =
2017-11-23 08:45 METAR KSWF 231345Z 00000KT 20SM SKC M01/M05 A3010 =

Support USWX by starting your Amazon purchase here.